Time;durP1;ratioP1;P1;durP2;ratioP2;P2;SDS_P1;SDS_P2;PMS_P1;PMS_P2;Temp;Humidity;BMP_temperature;BMP_pressure;BME280_temperature;BME280_humidity;BME280_pressure;Samples;Min_cycle;Max_cycle;Signal;HPM_P1;HPM_P2
2021/04/19 00:02:25;;;;;;;2.88;1.33;;;20.40;33.30;;;;;;5101196;28;20040;-68
2021/04/19 00:04:51;;;;;;;2.53;1.25;;;20.40;33.30;;;;;;5094402;28;20063;-67
2021/04/19 00:07:17;;;;;;;1.92;1.10;;;20.40;33.30;;;;;;5094994;28;20028;-68
2021/04/19 00:09:43;;;;;;;2.97;1.42;;;20.40;33.30;;;;;;5096285;28;20029;-67
2021/04/19 00:12:10;;;;;;;2.53;1.20;;;20.40;33.30;;;;;;5094021;28;20035;-67
2021/04/19 00:14:36;;;;;;;3.50;1.58;;;20.40;33.30;;;;;;5093778;28;20032;-67
2021/04/19 00:17:03;;;;;;;3.35;1.33;;;20.40;33.40;;;;;;5094105;28;20036;-67
2021/04/19 00:19:28;;;;;;;2.95;1.20;;;20.40;33.40;;;;;;5093843;28;20365;-68
2021/04/19 00:21:54;;;;;;;2.83;1.40;;;20.40;33.40;;;;;;5093800;28;20115;-67
2021/04/19 00:24:20;;;;;;;3.28;1.60;;;20.40;33.40;;;;;;5093836;28;20028;-67
2021/04/19 00:26:45;;;;;;;2.20;1.10;;;20.40;33.40;;;;;;5094040;28;20020;-67
2021/04/19 00:29:11;;;;;;;2.30;1.27;;;20.40;33.40;;;;;;5092452;28;20035;-68
2021/04/19 00:31:36;;;;;;;3.42;1.50;;;20.40;33.40;;;;;;5093448;28;20052;-67
2021/04/19 00:34:03;;;;;;;3.22;1.40;;;20.40;33.50;;;;;;5092289;28;20107;-67
2021/04/19 00:36:29;;;;;;;4.22;1.60;;;20.40;33.40;;;;;;5093717;28;20082;-67
2021/04/19 00:38:55;;;;;;;2.85;1.40;;;20.40;33.50;;;;;;5094280;28;20032;-67
2021/04/19 00:41:21;;;;;;;3.70;1.80;;;20.30;33.40;;;;;;5097772;28;20028;-67
2021/04/19 00:43:47;;;;;;;2.90;1.50;;;20.40;33.50;;;;;;5097413;28;20483;-67
2021/04/19 00:46:12;;;;;;;3.30;1.65;;;20.40;33.50;;;;;;5097762;28;20028;-67
2021/04/19 00:48:38;;;;;;;3.65;1.50;;;20.40;33.50;;;;;;5097733;28;20055;-67
2021/04/19 00:51:05;;;;;;;2.83;1.38;;;20.30;33.50;;;;;;5097677;28;20022;-66
2021/04/19 00:53:31;;;;;;;3.03;1.60;;;20.40;33.50;;;;;;5096387;28;20125;-67
2021/04/19 00:55:57;;;;;;;2.97;1.52;;;20.30;33.50;;;;;;5097502;28;20026;-67
2021/04/19 00:58:31;;;;;;;3.97;1.98;;;20.40;33.50;;;;;;5097747;28;20098;-67
2021/04/19 01:00:56;;;;;;;3.30;1.80;;;20.40;33.50;;;;;;5097428;28;20039;-67
2021/04/19 01:03:23;;;;;;;3.60;1.80;;;20.40;33.50;;;;;;5097147;28;20036;-67
2021/04/19 01:05:49;;;;;;;4.93;1.95;;;20.40;33.60;;;;;;5097371;28;20020;-67
2021/04/19 01:08:15;;;;;;;5.82;2.03;;;20.40;33.50;;;;;;5097294;28;20055;-67
2021/04/19 01:10:41;;;;;;;3.88;1.80;;;20.30;33.50;;;;;;5097336;28;20020;-67
2021/04/19 01:13:08;;;;;;;3.28;1.83;;;20.40;33.60;;;;;;5097021;28;20035;-67
2021/04/19 01:15:34;;;;;;;4.65;1.88;;;20.40;33.60;;;;;;5096952;28;20024;-67
2021/04/19 01:18:00;;;;;;;3.95;1.77;;;20.30;33.60;;;;;;5097127;28;20483;-67
2021/04/19 01:20:28;;;;;;;3.88;1.85;;;20.40;33.60;;;;;;5096986;28;20043;-67
2021/04/19 01:22:54;;;;;;;3.22;1.88;;;20.40;33.60;;;;;;5096635;28;20048;-68
2021/04/19 01:25:29;;;;;;;3.92;1.63;;;20.40;33.60;;;;;;5096814;28;20028;-67
2021/04/19 01:27:56;;;;;;;4.63;2.20;;;20.40;33.70;;;;;;5096724;28;20024;-67
2021/04/19 01:30:25;;;;;;;3.30;1.70;;;20.30;33.70;;;;;;5096527;28;20028;-67
2021/04/19 01:32:50;;;;;;;4.32;1.80;;;20.30;33.60;;;;;;5095355;28;20111;-67
2021/04/19 01:35:17;;;;;;;3.47;1.92;;;20.30;33.70;;;;;;5095240;28;20099;-67
2021/04/19 01:37:43;;;;;;;4.45;2.10;;;20.40;33.70;;;;;;5096782;28;20099;-67
2021/04/19 01:40:12;;;;;;;4.22;2.15;;;20.40;33.70;;;;;;5096715;28;20019;-67
2021/04/19 01:42:38;;;;;;;4.53;2.10;;;20.40;33.70;;;;;;5096292;28;20036;-67
2021/04/19 01:45:04;;;;;;;4.20;2.00;;;20.30;33.70;;;;;;5096499;28;20434;-67
2021/04/19 01:47:30;;;;;;;3.72;1.83;;;20.30;33.70;;;;;;5095847;28;20031;-67
2021/04/19 01:49:56;;;;;;;4.10;1.98;;;20.30;33.70;;;;;;5096113;28;20111;-67
2021/04/19 01:52:22;;;;;;;4.43;1.90;;;20.40;33.80;;;;;;5095169;28;20057;-67
2021/04/19 01:54:47;;;;;;;3.83;1.90;;;20.30;33.70;;;;;;5096438;28;20024;-67
2021/04/19 01:57:13;;;;;;;4.38;2.22;;;20.30;33.80;;;;;;5096155;28;20020;-67
2021/04/19 01:59:39;;;;;;;4.47;1.90;;;20.30;33.80;;;;;;5096146;28;20020;-67
2021/04/19 02:02:10;;;;;;;4.18;1.92;;;20.30;33.80;;;;;;5095872;28;20055;-67
2021/04/19 02:05:17;;;;;;;4.53;1.63;;;20.30;33.80;;;;;;5096076;28;20059;-67
2021/04/19 02:08:05;;;;;;;4.97;2.17;;;20.40;33.80;;;;;;5033436;28;20017;-67
2021/04/19 02:11:07;;;;;;;5.47;1.90;;;20.30;33.90;;;;;;5095264;28;20591;-67
2021/04/19 02:13:44;;;;;;;3.75;1.98;;;20.30;33.90;;;;;;5095986;28;20047;-67
2021/04/19 02:16:27;;;;;;;4.63;2.22;;;20.40;33.90;;;;;;5096136;28;20563;-67
2021/04/19 02:19:01;;;;;;;3.85;1.90;;;20.30;33.90;;;;;;5096028;28;20085;-67
2021/04/19 02:21:39;;;;;;;4.07;1.90;;;20.30;33.90;;;;;;5095637;28;20032;-67
2021/04/19 02:24:09;;;;;;;3.45;1.60;;;20.40;34.00;;;;;;5095845;28;20097;-67
2021/04/19 02:26:38;;;;;;;4.70;2.17;;;20.30;34.00;;;;;;5095573;28;20059;-67
2021/04/19 02:29:09;;;;;;;5.07;2.35;;;20.30;34.00;;;;;;5095364;28;20108;-67
2021/04/19 02:31:38;;;;;;;3.72;1.95;;;20.30;34.00;;;;;;5095430;28;20054;-67
2021/04/19 02:34:08;;;;;;;3.10;1.60;;;20.30;34.10;;;;;;5095810;28;20107;-67
2021/04/19 02:36:36;;;;;;;4.13;1.98;;;20.30;34.10;;;;;;5095453;28;20023;-68
2021/04/19 02:39:04;;;;;;;4.10;2.05;;;20.30;34.20;;;;;;5093980;28;20032;-67
2021/04/19 02:41:30;;;;;;;3.60;1.80;;;20.30;34.30;;;;;;5095699;28;20055;-67
2021/04/19 02:43:57;;;;;;;3.25;1.80;;;20.30;34.30;;;;;;5095360;28;20548;-67
2021/04/19 02:46:23;;;;;;;3.78;1.90;;;20.30;34.30;;;;;;5095484;28;20031;-67
2021/04/19 02:48:50;;;;;;;4.43;1.85;;;20.30;34.30;;;;;;5095225;28;20056;-67
2021/04/19 02:51:17;;;;;;;4.20;2.00;;;20.30;34.40;;;;;;5095189;28;20070;-67
2021/04/19 02:53:44;;;;;;;3.55;1.70;;;20.30;34.40;;;;;;5094886;28;20047;-67
2021/04/19 02:56:10;;;;;;;3.97;1.90;;;20.30;34.40;;;;;;5095582;28;20020;-67
2021/04/19 02:58:48;;;;;;;3.78;1.95;;;20.30;34.50;;;;;;5094984;28;20035;-68
2021/04/19 03:01:29;;;;;;;3.70;2.03;;;20.30;34.60;;;;;;5093565;28;20032;-67
2021/04/19 03:03:58;;;;;;;4.53;1.98;;;20.30;34.50;;;;;;5094550;28;20032;-67
2021/04/19 03:06:25;;;;;;;3.80;1.60;;;20.30;34.50;;;;;;5094907;28;20024;-67
2021/04/19 03:08:56;;;;;;;3.33;1.90;;;20.30;34.60;;;;;;5094906;28;20027;-67
2021/04/19 03:11:28;;;;;;;3.80;1.63;;;20.30;34.60;;;;;;5095063;28;20438;-67
2021/04/19 03:13:56;;;;;;;3.67;1.67;;;20.20;34.60;;;;;;5094753;28;20104;-68
2021/04/19 03:16:25;;;;;;;4.45;1.90;;;20.20;34.60;;;;;;5094873;28;20102;-67
2021/04/19 03:18:52;;;;;;;5.38;2.13;;;20.20;34.60;;;;;;5094607;28;20050;-67
2021/04/19 03:21:21;;;;;;;3.47;1.70;;;20.20;34.60;;;;;;5094524;28;20106;-67
2021/04/19 03:23:52;;;;;;;4.57;2.15;;;20.20;34.60;;;;;;5094419;28;20387;-67
2021/04/19 03:26:19;;;;;;;4.68;2.00;;;20.20;34.70;;;;;;5094595;28;20345;-67
2021/04/19 03:28:46;;;;;;;4.82;2.10;;;20.20;34.70;;;;;;5094305;28;20028;-67
2021/04/19 03:31:23;;;;;;;3.50;1.58;;;20.30;34.80;;;;;;5094153;28;20482;-67
2021/04/19 03:33:51;;;;;;;3.50;1.77;;;20.20;34.80;;;;;;5094502;28;20016;-67
2021/04/19 03:36:19;;;;;;;4.35;1.70;;;20.20;34.80;;;;;;5094540;28;20066;-67
2021/04/19 03:38:46;;;;;;;3.83;1.83;;;20.20;34.80;;;;;;5094133;28;20024;-67
2021/04/19 03:41:13;;;;;;;3.80;1.90;;;20.30;34.80;;;;;;5094350;28;20024;-67
2021/04/19 03:43:39;;;;;;;4.47;1.90;;;20.20;34.80;;;;;;5093941;28;20484;-67
2021/04/19 03:46:08;;;;;;;3.50;1.70;;;20.20;34.80;;;;;;5094255;28;20035;-67
2021/04/19 03:48:39;;;;;;;3.65;1.65;;;20.20;34.80;;;;;;5094034;28;20028;-67
2021/04/19 03:51:09;;;;;;;3.40;1.60;;;20.20;34.80;;;;;;5094006;28;20016;-67
2021/04/19 03:53:36;;;;;;;3.40;1.70;;;20.20;34.90;;;;;;5093863;28;20063;-67
2021/04/19 03:56:03;;;;;;;4.07;2.00;;;20.20;34.90;;;;;;5093625;28;20035;-67
2021/04/19 03:58:32;;;;;;;3.80;1.52;;;20.20;34.90;;;;;;5093987;28;20508;-67
2021/04/19 04:01:01;;;;;;;4.07;1.83;;;20.20;34.90;;;;;;5093899;28;20026;-67
2021/04/19 04:03:28;;;;;;;3.78;1.77;;;20.20;34.90;;;;;;5093782;28;20422;-67
2021/04/19 04:05:55;;;;;;;6.03;2.22;;;20.20;34.90;;;;;;5094255;28;20021;-67
2021/04/19 04:08:22;;;;;;;4.22;1.90;;;20.20;34.90;;;;;;5094184;28;20040;-67
2021/04/19 04:10:48;;;;;;;4.60;1.98;;;20.30;35.00;;;;;;5093912;28;20017;-67
2021/04/19 04:13:14;;;;;;;2.85;1.70;;;20.30;34.90;;;;;;5094045;28;20035;-67
2021/04/19 04:15:55;;;;;;;3.75;1.80;;;20.30;34.80;;;;;;5093527;28;20099;-67
2021/04/19 04:18:21;;;;;;;3.70;1.88;;;20.20;34.90;;;;;;5093967;28;20035;-67
2021/04/19 04:20:47;;;;;;;4.00;1.95;;;20.30;35.00;;;;;;5093704;28;20024;-67
2021/04/19 04:23:14;;;;;;;4.57;2.10;;;20.30;34.90;;;;;;5093746;28;20066;-68
2021/04/19 04:25:40;;;;;;;4.22;2.22;;;20.30;34.90;;;;;;5094312;28;20028;-67
2021/04/19 04:28:07;;;;;;;4.30;1.88;;;20.40;34.90;;;;;;5094087;28;20032;-67
2021/04/19 04:30:35;;;;;;;3.30;1.67;;;20.40;35.00;;;;;;5098362;28;20047;-67
2021/04/19 04:33:04;;;;;;;3.72;1.80;;;20.40;34.90;;;;;;5095903;28;20081;-67
2021/04/19 04:35:30;;;;;;;4.55;2.17;;;20.40;34.90;;;;;;5093435;28;20023;-67
2021/04/19 04:37:57;;;;;;;3.80;1.60;;;20.40;34.90;;;;;;5093489;28;20028;-67
2021/04/19 04:40:26;;;;;;;4.43;1.92;;;20.50;34.90;;;;;;5092886;28;20061;-67
2021/04/19 04:42:56;;;;;;;4.05;1.90;;;20.50;34.90;;;;;;5093053;28;20040;-67
2021/04/19 04:45:22;;;;;;;4.05;2.10;;;20.50;34.90;;;;;;5093088;28;20498;-66
2021/04/19 04:48:27;;;;;;;3.58;1.80;;;20.50;34.90;;;;;;5093127;28;20036;-66
2021/04/19 04:51:01;;;;;;;4.05;1.85;;;20.50;34.90;;;;;;5071244;28;20412;-66
2021/04/19 04:53:35;;;;;;;3.90;1.83;;;20.50;34.90;;;;;;5093256;28;20028;-66
2021/04/19 04:56:02;;;;;;;3.42;1.83;;;20.50;34.90;;;;;;5093220;28;20483;-66
2021/04/19 04:58:28;;;;;;;4.18;2.10;;;20.50;34.90;;;;;;5092859;28;20032;-66
2021/04/19 05:00:55;;;;;;;4.32;2.05;;;20.50;34.90;;;;;;5092994;28;20024;-67
2021/04/19 05:03:22;;;;;;;4.30;1.95;;;20.50;34.90;;;;;;5091961;28;20036;-66
2021/04/19 05:05:48;;;;;;;3.75;1.80;;;20.50;34.90;;;;;;5093410;28;20032;-67
2021/04/19 05:08:14;;;;;;;4.10;2.03;;;20.50;34.90;;;;;;5093099;28;20101;-66
2021/04/19 05:10:40;;;;;;;4.00;1.98;;;20.50;34.90;;;;;;5092970;28;20375;-66
2021/04/19 05:13:16;;;;;;;3.30;1.60;;;20.50;34.90;;;;;;5093272;28;20016;-66
2021/04/19 05:15:48;;;;;;;7.55;1.70;;;20.50;34.90;;;;;;5092787;28;20089;-66
2021/04/19 05:18:14;;;;;;;3.47;1.90;;;20.50;34.90;;;;;;5092918;28;20032;-66
2021/04/19 05:20:41;;;;;;;3.50;1.83;;;20.50;34.90;;;;;;5094918;28;20021;-66
2021/04/19 05:23:08;;;;;;;3.20;1.58;;;20.50;34.90;;;;;;5092492;28;20602;-67
2021/04/19 05:25:33;;;;;;;3.95;1.80;;;20.50;34.90;;;;;;5094380;28;20020;-67
2021/04/19 05:27:59;;;;;;;3.33;1.98;;;20.50;34.90;;;;;;5096634;28;20028;-67
2021/04/19 05:30:29;;;;;;;4.88;2.00;;;20.50;35.00;;;;;;5096792;28;20048;-67
2021/04/19 05:32:55;;;;;;;3.67;1.85;;;20.50;35.00;;;;;;5095763;28;20028;-67
2021/04/19 05:35:21;;;;;;;3.42;1.70;;;20.50;35.00;;;;;;5096653;28;20079;-67
2021/04/19 05:37:49;;;;;;;3.35;1.58;;;20.50;35.00;;;;;;5096497;28;20490;-67
2021/04/19 05:40:16;;;;;;;3.83;1.67;;;20.50;35.00;;;;;;5096445;28;20020;-67
2021/04/19 05:42:42;;;;;;;3.53;1.67;;;20.50;35.00;;;;;;5096757;28;20055;-67
2021/04/19 05:45:08;;;;;;;3.92;2.00;;;20.60;35.10;;;;;;5096249;28;20460;-67
2021/04/19 05:47:34;;;;;;;3.67;1.80;;;20.50;35.10;;;;;;5096734;28;20031;-67
2021/04/19 05:49:59;;;;;;;3.47;1.70;;;20.50;35.10;;;;;;5096420;28;20020;-67
2021/04/19 05:52:26;;;;;;;4.45;2.13;;;20.50;35.10;;;;;;5096295;28;20028;-67
2021/04/19 05:54:51;;;;;;;3.08;1.67;;;20.50;35.10;;;;;;5096303;28;20028;-66
2021/04/19 05:57:20;;;;;;;3.72;1.92;;;20.60;35.10;;;;;;5096501;28;20020;-67
2021/04/19 05:59:59;;;;;;;3.92;1.73;;;20.60;35.10;;;;;;5096489;28;20032;-67
2021/04/19 06:02:39;;;;;;;3.47;1.83;;;20.60;35.10;;;;;;5096075;28;20074;-67
2021/04/19 06:05:10;;;;;;;3.25;1.70;;;20.60;35.20;;;;;;5096360;28;20088;-67
2021/04/19 06:07:43;;;;;;;4.20;1.88;;;20.50;35.20;;;;;;5096536;28;20016;-67
2021/04/19 06:10:22;;;;;;;3.17;1.80;;;20.60;35.20;;;;;;5100486;28;20020;-67
2021/04/19 06:12:53;;;;;;;3.15;1.98;;;20.60;35.20;;;;;;5100628;28;20062;-67
2021/04/19 06:15:22;;;;;;;3.47;2.08;;;20.60;35.20;;;;;;5099127;28;20020;-67
2021/04/19 06:17:49;;;;;;;3.47;1.77;;;20.60;35.20;;;;;;5095901;28;20111;-67
2021/04/19 06:20:17;;;;;;;3.45;1.80;;;20.60;35.20;;;;;;5095395;28;20028;-67
2021/04/19 06:22:44;;;;;;;4.45;1.58;;;20.60;35.30;;;;;;5095765;28;20036;-67
2021/04/19 06:25:12;;;;;;;4.13;1.50;;;20.60;35.30;;;;;;5095880;28;20060;-68
2021/04/19 06:27:38;;;;;;;4.78;2.40;;;20.60;35.30;;;;;;5077940;28;20395;-67
2021/04/19 06:30:16;;;;;;;8.27;5.97;;;20.60;35.80;;;;;;5063305;28;20119;-66
2021/04/19 06:32:42;;;;;;;10.20;6.15;;;20.20;39.20;;;;;;5061382;28;20082;-66
2021/04/19 06:35:10;;;;;;;8.98;6.07;;;20.10;40.60;;;;;;5055667;28;20029;-67
2021/04/19 06:37:35;;;;;;;9.43;6.53;;;20.00;41.50;;;;;;5058050;28;20649;-68
2021/04/19 06:40:02;;;;;;;10.98;6.30;;;19.90;41.90;;;;;;5065571;28;20051;-67
2021/04/19 06:42:28;;;;;;;9.70;6.47;;;19.90;41.70;;;;;;5061320;28;20052;-67
2021/04/19 06:44:54;;;;;;;9.77;6.93;;;19.80;42.40;;;;;;5065428;28;20412;-67
2021/04/19 06:47:20;;;;;;;11.35;8.05;;;19.70;42.70;;;;;;5074677;28;20050;-67
2021/04/19 06:49:48;;;;;;;10.48;7.70;;;19.60;43.20;;;;;;5076253;28;20509;-67
2021/04/19 06:52:15;;;;;;;10.65;7.60;;;19.50;43.80;;;;;;5094425;28;20038;-65
2021/04/19 06:54:41;;;;;;;11.07;8.30;;;19.50;44.00;;;;;;5073573;28;20032;-67
2021/04/19 06:57:08;;;;;;;11.93;8.07;;;19.50;43.80;;;;;;5069393;28;20112;-66
2021/04/19 06:59:34;;;;;;;10.05;6.95;;;19.50;43.60;;;;;;5071402;28;20762;-70
2021/04/19 07:02:01;;;;;;;5.90;3.10;;;19.80;42.60;;;;;;5062017;28;20061;-65
2021/04/19 07:04:27;;;;;;;5.90;2.72;;;20.00;40.20;;;;;;5072984;28;20037;-67
2021/04/19 07:06:55;;;;;;;6.63;3.25;;;20.30;39.30;;;;;;5066357;28;20028;-68
2021/04/19 07:09:27;;;;;;;8.30;3.13;;;20.50;39.10;;;;;;5072740;28;20028;-66
2021/04/19 07:12:05;;;;;;;4.82;2.75;;;20.50;38.80;;;;;;5080645;28;20479;-66
2021/04/19 07:14:34;;;;;;;4.07;2.33;;;20.60;38.50;;;;;;5072727;28;20447;-66
2021/04/19 07:17:00;;;;;;;4.53;2.42;;;20.60;38.60;;;;;;5071724;28;20035;-66
2021/04/19 07:19:27;;;;;;;4.85;2.58;;;20.70;38.40;;;;;;5071207;28;20115;-67
2021/04/19 07:21:53;;;;;;;4.65;2.28;;;20.70;38.30;;;;;;5072427;28;20056;-67
2021/04/19 07:24:19;;;;;;;4.45;2.20;;;20.70;38.20;;;;;;5072179;28;20058;-66
2021/04/19 07:26:48;;;;;;;5.40;2.50;;;20.70;38.20;;;;;;5060429;28;20096;-68
2021/04/19 07:29:14;;;;;;;9.75;2.90;;;20.70;38.20;;;;;;5064835;28;20032;-66
2021/04/19 07:31:51;;;;;;;5.85;2.70;;;20.80;38.30;;;;;;5067979;28;20033;-67
2021/04/19 07:34:19;;;;;;;3.83;1.83;;;20.80;38.10;;;;;;5052235;28;20032;-68
2021/04/19 07:36:58;;;;;;;5.88;2.22;;;20.90;37.90;;;;;;5072447;28;20107;-69
2021/04/19 07:39:26;;;;;;;4.00;2.10;;;20.80;37.90;;;;;;5072285;28;20025;-68
2021/04/19 07:41:53;;;;;;;4.25;2.22;;;20.80;37.90;;;;;;5071802;28;20043;-68
2021/04/19 07:44:41;;;;;;;5.55;1.80;;;20.80;37.80;;;;;;5072792;28;20516;-68
2021/04/19 07:47:22;;;;;;;4.00;2.15;;;20.80;37.80;;;;;;5073435;28;20051;-67
2021/04/19 07:50:07;;;;;;;4.65;2.25;;;20.80;37.70;;;;;;5072191;28;20025;-68
2021/04/19 07:52:37;;;;;;;4.18;1.80;;;20.80;37.70;;;;;;5072798;28;20020;-68
2021/04/19 07:55:11;;;;;;;4.72;2.10;;;20.80;37.70;;;;;;5065881;28;20486;-65
2021/04/19 07:57:38;;;;;;;5.70;2.58;;;20.80;37.80;;;;;;5060320;28;20361;-67
2021/04/19 08:00:06;;;;;;;4.20;2.10;;;20.80;37.90;;;;;;5053125;28;20036;-70
2021/04/19 08:02:32;;;;;;;4.05;2.20;;;20.90;37.80;;;;;;5059001;28;20044;-66
2021/04/19 08:04:59;;;;;;;4.15;1.95;;;20.90;37.80;;;;;;5061113;28;20030;-67
2021/04/19 08:07:29;;;;;;;5.43;2.38;;;20.80;37.60;;;;;;5075448;28;20507;-66
2021/04/19 08:10:03;;;;;;;4.38;2.15;;;20.90;37.60;;;;;;5080762;28;20373;-68
2021/04/19 08:12:36;;;;;;;6.07;2.20;;;20.90;37.50;;;;;;5068973;28;20032;-66
2021/04/19 08:15:07;;;;;;;5.22;2.10;;;20.90;37.50;;;;;;5053365;28;20389;-66
2021/04/19 08:17:33;;;;;;;3.05;1.73;;;20.90;37.50;;;;;;5065563;28;20029;-70
2021/04/19 08:19:59;;;;;;;4.30;1.92;;;20.90;37.50;;;;;;5072063;28;20118;-64
2021/04/19 08:22:27;;;;;;;5.03;2.28;;;20.90;37.60;;;;;;5081585;28;20086;-64
2021/04/19 08:25:11;;;;;;;3.95;1.85;;;20.90;37.60;;;;;;5065902;28;20029;-65
2021/04/19 08:27:37;;;;;;;3.95;1.80;;;21.00;37.50;;;;;;5065852;28;20025;-67
2021/04/19 08:30:04;;;;;;;4.57;1.90;;;21.00;37.50;;;;;;5071694;28;20036;-66
2021/04/19 08:32:32;;;;;;;4.22;2.03;;;21.00;37.40;;;;;;5069597;28;20052;-66
2021/04/19 08:34:58;;;;;;;4.50;1.90;;;21.00;37.40;;;;;;5066119;28;20511;-65
2021/04/19 08:37:27;;;;;;;3.75;1.92;;;20.90;37.40;;;;;;5080108;28;20064;-66
2021/04/19 08:39:56;;;;;;;5.38;2.10;;;21.00;37.40;;;;;;5059893;28;20016;-68
2021/04/19 08:42:22;;;;;;;5.85;2.50;;;20.90;37.40;;;;;;5052063;28;20056;-66
2021/04/19 08:44:54;;;;;;;3.72;1.70;;;21.00;37.50;;;;;;5055456;28;20115;-65
2021/04/19 08:47:21;;;;;;;6.45;2.20;;;21.10;37.30;;;;;;5069613;28;20036;-64
2021/04/19 08:49:47;;;;;;;3.53;1.83;;;21.10;37.30;;;;;;5069658;28;20040;-66
2021/04/19 08:52:16;;;;;;;6.00;2.47;;;21.10;37.30;;;;;;5057129;28;20025;-66
2021/04/19 08:54:42;;;;;;;3.58;2.13;;;21.10;37.30;;;;;;5060300;28;20090;-66
2021/04/19 08:57:08;;;;;;;4.85;1.75;;;21.10;37.30;;;;;;5088492;28;20081;-65
2021/04/19 08:59:35;;;;;;;4.90;1.83;;;21.10;37.30;;;;;;5073222;28;20024;-65
2021/04/19 09:02:03;;;;;;;3.15;1.70;;;21.00;37.30;;;;;;5074823;28;20460;-65
2021/04/19 09:04:28;;;;;;;4.63;1.83;;;21.00;37.30;;;;;;5074788;28;20460;-64
2021/04/19 09:06:55;;;;;;;4.72;1.95;;;21.00;37.40;;;;;;5075705;28;20017;-64
2021/04/19 09:09:32;;;;;;;5.80;1.80;;;21.00;37.40;;;;;;5075474;28;20036;-64
2021/04/19 09:12:10;;;;;;;3.78;1.88;;;21.00;37.40;;;;;;5075084;28;20046;-68
2021/04/19 09:14:38;;;;;;;5.22;2.13;;;21.00;37.40;;;;;;5078683;28;20035;-66
2021/04/19 09:17:04;;;;;;;4.30;2.00;;;21.00;37.50;;;;;;5066881;28;20534;-68
2021/04/19 09:19:30;;;;;;;5.00;1.73;;;21.00;37.60;;;;;;5061206;28;20056;-67
2021/04/19 09:22:13;;;;;;;4.15;1.67;;;21.00;37.40;;;;;;5065115;28;20045;-66
2021/04/19 09:25:05;;;;;;;4.57;1.80;;;21.00;37.30;;;;;;5053818;28;20172;-66
2021/04/19 09:27:57;;;;;;;2.83;1.70;;;21.00;37.40;;;;;;5065735;28;20033;-66
2021/04/19 09:30:27;;;;;;;4.38;2.00;;;21.00;37.50;;;;;;5091814;28;20130;-66
2021/04/19 09:33:04;;;;;;;4.90;1.73;;;21.00;37.40;;;;;;5079494;28;20027;-66
2021/04/19 09:35:41;;;;;;;3.85;1.90;;;21.00;37.50;;;;;;5069139;28;20028;-65
2021/04/19 09:38:11;;;;;;;6.30;2.00;;;21.00;37.50;;;;;;5063521;28;20029;-66
2021/04/19 09:40:50;;;;;;;4.97;2.60;;;21.00;37.50;;;;;;5071203;28;20021;-66
2021/04/19 09:43:35;;;;;;;5.32;2.25;;;20.80;38.30;;;;;;5073369;28;20075;-65
2021/04/19 09:46:16;;;;;;;4.60;2.25;;;20.60;38.70;;;;;;5067772;28;20046;-66
2021/04/19 09:49:04;;;;;;;4.15;2.17;;;20.50;39.00;;;;;;5068822;28;20070;-66
2021/04/19 09:51:37;;;;;;;4.03;2.17;;;20.40;39.30;;;;;;5072777;28;20020;-65
2021/04/19 09:54:22;;;;;;;7.43;4.20;;;20.30;39.30;;;;;;5077834;28;20499;-64
2021/04/19 09:56:50;;;;;;;5.63;3.33;;;20.30;39.40;;;;;;5070208;28;20035;-65
2021/04/19 09:59:24;;;;;;;6.30;3.40;;;20.30;39.60;;;;;;5069400;28;20428;-64
2021/04/19 10:01:51;;;;;;;6.38;3.97;;;20.40;39.40;;;;;;5090093;28;20028;-65
2021/04/19 10:04:17;;;;;;;7.85;4.00;;;20.20;39.90;;;;;;5074009;28;20051;-64
2021/04/19 10:06:56;;;;;;;7.05;3.33;;;20.10;40.00;;;;;;5070311;28;20211;-65
2021/04/19 10:09:23;;;;;;;13.50;4.35;;;20.20;40.20;;;;;;5071946;28;20086;-65
2021/04/19 10:11:54;;;;;;;6.95;4.28;;;20.00;40.30;;;;;;5066613;28;20025;-66
2021/04/19 10:14:21;;;;;;;7.97;4.25;;;19.90;40.50;;;;;;5067197;28;20035;-64
2021/04/19 10:16:50;;;;;;;6.30;4.07;;;19.90;40.60;;;;;;5067676;28;20032;-64
2021/04/19 10:19:30;;;;;;;8.32;4.07;;;20.00;40.50;;;;;;5063005;28;20071;-66
2021/04/19 10:22:04;;;;;;;7.22;4.00;;;20.00;40.70;;;;;;5053181;28;20370;-64
2021/04/19 10:24:48;;;;;;;9.05;4.72;;;19.80;40.90;;;;;;5066559;28;20050;-64
2021/04/19 10:27:25;;;;;;;7.18;4.00;;;19.80;41.40;;;;;;5083697;28;20035;-69
2021/04/19 10:29:53;;;;;;;7.35;4.53;;;19.90;41.10;;;;;;5073110;28;20039;-65
2021/04/19 10:32:28;;;;;;;7.13;4.00;;;19.70;40.70;;;;;;5058113;28;20029;-66
2021/04/19 10:34:54;;;;;;;5.68;3.38;;;19.90;40.60;;;;;;5058793;28;20372;-67
2021/04/19 10:37:20;;;;;;;5.32;2.40;;;20.00;40.30;;;;;;5063303;28;20024;-64
2021/04/19 10:39:45;;;;;;;3.80;2.10;;;20.10;39.30;;;;;;5089029;28;20496;-62
2021/04/19 10:42:11;;;;;;;6.30;2.88;;;20.30;39.10;;;;;;5069202;28;20120;-63
2021/04/19 10:44:38;;;;;;;4.65;2.50;;;20.30;39.50;;;;;;5065193;28;20066;-65
2021/04/19 10:47:05;;;;;;;4.55;2.35;;;20.40;39.30;;;;;;5063289;28;20029;-65
2021/04/19 10:49:31;;;;;;;5.00;2.42;;;20.40;38.80;;;;;;5064916;28;20035;-64
2021/04/19 10:52:07;;;;;;;4.63;2.10;;;20.40;39.30;;;;;;5070091;28;20025;-65
2021/04/19 10:54:35;;;;;;;4.35;2.38;;;20.40;39.20;;;;;;5053533;28;20035;-65
2021/04/19 10:57:03;;;;;;;5.15;2.38;;;20.50;39.10;;;;;;5070145;28;20024;-64
2021/04/19 10:59:30;;;;;;;3.60;2.25;;;20.40;39.20;;;;;;5065010;28;20561;-64
2021/04/19 11:02:05;;;;;;;4.70;2.15;;;20.50;39.00;;;;;;5063337;28;20064;-64
2021/04/19 11:04:31;;;;;;;5.03;1.95;;;20.50;38.60;;;;;;5053599;28;20077;-65
2021/04/19 11:07:25;;;;;;;5.75;2.05;;;20.60;38.50;;;;;;5073299;28;20027;-66
2021/04/19 11:10:23;;;;;;;3.55;1.70;;;20.70;38.30;;;;;;5072416;28;20512;-65
2021/04/19 11:13:01;;;;;;;3.67;1.80;;;20.80;38.30;;;;;;5064153;28;20024;-65
2021/04/19 11:15:34;;;;;;;4.40;1.83;;;20.80;38.20;;;;;;5069879;28;20017;-65
2021/04/19 11:18:00;;;;;;;4.95;1.85;;;20.90;38.20;;;;;;5070382;28;20024;-63
2021/04/19 11:20:31;;;;;;;5.72;1.98;;;20.80;38.20;;;;;;5072292;28;20392;-64
2021/04/19 11:23:00;;;;;;;2.88;1.70;;;20.90;38.10;;;;;;5072287;28;20087;-64
2021/04/19 11:25:30;;;;;;;3.60;1.92;;;20.90;38.10;;;;;;5072367;28;20439;-64
2021/04/19 11:28:19;;;;;;;4.43;2.03;;;20.90;38.10;;;;;;5071973;28;20050;-64
2021/04/19 11:30:46;;;;;;;3.35;1.70;;;21.00;38.10;;;;;;5072955;28;20031;-64
2021/04/19 11:33:14;;;;;;;3.17;1.52;;;21.00;38.10;;;;;;5072003;28;20025;-64
2021/04/19 11:35:42;;;;;;;3.45;1.88;;;21.00;38.00;;;;;;5058178;28;20065;-66
2021/04/19 11:38:10;;;;;;;3.42;1.98;;;21.00;38.00;;;;;;5052489;28;20033;-64
2021/04/19 11:40:41;;;;;;;3.40;1.67;;;21.00;38.00;;;;;;5052583;28;20067;-65
2021/04/19 11:43:31;;;;;;;3.60;1.60;;;21.00;38.00;;;;;;5052369;28;20496;-66
2021/04/19 11:46:02;;;;;;;2.83;1.63;;;21.00;37.90;;;;;;5066413;28;20029;-68
2021/04/19 11:48:30;;;;;;;3.17;1.65;;;21.10;37.90;;;;;;5072050;28;20048;-67
2021/04/19 11:50:56;;;;;;;2.08;1.40;;;21.10;37.90;;;;;;5065321;28;20024;-64
2021/04/19 11:53:24;;;;;;;3.10;1.52;;;21.10;37.80;;;;;;5054906;28;20494;-64
2021/04/19 11:55:51;;;;;;;4.50;1.88;;;21.10;37.70;;;;;;5069056;28;20028;-63
2021/04/19 11:58:16;;;;;;;3.38;1.60;;;21.10;37.80;;;;;;5073537;28;20036;-63
2021/04/19 12:00:42;;;;;;;3.22;1.70;;;21.10;37.70;;;;;;5059631;28;20025;-63
2021/04/19 12:03:08;;;;;;;3.97;1.60;;;21.20;37.70;;;;;;5051957;28;20033;-63
2021/04/19 12:05:33;;;;;;;3.30;1.65;;;21.30;37.60;;;;;;5081365;28;20029;-63
2021/04/19 12:07:59;;;;;;;3.05;1.50;;;21.30;37.50;;;;;;5068206;28;20357;-62
2021/04/19 12:10:25;;;;;;;2.95;1.63;;;21.30;37.40;;;;;;5064346;28;20125;-62
2021/04/19 12:12:50;;;;;;;3.88;1.90;;;21.30;37.40;;;;;;5068590;28;20039;-61
2021/04/19 12:15:16;;;;;;;3.95;1.70;;;21.30;37.40;;;;;;5092673;28;20024;-60
2021/04/19 12:17:41;;;;;;;2.88;1.55;;;21.30;37.40;;;;;;5077399;28;20382;-60
2021/04/19 12:20:07;;;;;;;4.18;1.63;;;21.40;37.40;;;;;;5050250;28;20381;-61
2021/04/19 12:22:33;;;;;;;4.53;1.98;;;21.30;37.40;;;;;;5056598;28;20073;-61
2021/04/19 12:24:59;;;;;;;4.63;1.52;;;21.30;37.40;;;;;;5063139;28;20071;-62
2021/04/19 12:27:24;;;;;;;4.47;1.75;;;21.40;37.40;;;;;;5068788;28;20029;-62
2021/04/19 12:29:50;;;;;;;4.35;2.10;;;21.50;37.30;;;;;;5071741;28;20082;-62
2021/04/19 12:32:16;;;;;;;4.63;1.77;;;21.50;37.10;;;;;;5069537;28;20028;-63
2021/04/19 12:34:42;;;;;;;6.18;1.95;;;21.50;37.10;;;;;;5067664;28;20033;-63
2021/04/19 12:37:08;;;;;;;3.88;1.83;;;21.60;37.00;;;;;;5071541;28;20352;-63
2021/04/19 12:39:34;;;;;;;3.08;1.80;;;21.60;36.90;;;;;;5072441;28;20035;-63
2021/04/19 12:41:59;;;;;;;4.00;1.48;;;21.70;36.90;;;;;;5053521;28;20111;-63
2021/04/19 12:44:25;;;;;;;3.33;1.70;;;21.80;36.70;;;;;;5071350;28;20020;-63
2021/04/19 12:46:51;;;;;;;4.28;1.63;;;21.90;36.60;;;;;;5070847;28;20043;-65
2021/04/19 12:49:19;;;;;;;5.10;1.58;;;21.90;36.60;;;;;;5086728;28;20028;-63
2021/04/19 12:51:46;;;;;;;3.17;1.67;;;21.90;36.50;;;;;;5053862;28;20044;-64
2021/04/19 12:54:12;;;;;;;3.20;1.63;;;22.00;36.50;;;;;;5055554;28;20064;-64
2021/04/19 12:56:38;;;;;;;4.18;1.52;;;21.90;36.50;;;;;;5050572;28;20056;-63
2021/04/19 12:59:03;;;;;;;3.38;1.95;;;21.90;36.60;;;;;;5056391;28;20033;-63